createdAt,value
2022-11-28T00:00:23.918Z,-1.40
2022-11-28T00:02:54.018Z,-1.40
2022-11-28T00:05:23.895Z,-1.40
2022-11-28T00:07:56.615Z,-1.50
2022-11-28T00:10:26.501Z,-1.50
2022-11-28T00:12:56.386Z,-1.50
2022-11-28T00:15:26.147Z,-1.50
2022-11-28T00:17:56.070Z,-1.50
2022-11-28T00:20:25.892Z,-1.40
2022-11-28T00:22:58.361Z,-1.50
2022-11-28T00:25:28.275Z,-1.50
2022-11-28T00:27:58.114Z,-1.50
2022-11-28T00:30:28.077Z,-1.40
2022-11-28T00:32:57.940Z,-1.50
2022-11-28T00:35:27.758Z,-1.50
2022-11-28T00:38:00.165Z,-1.50
2022-11-28T00:40:30.067Z,-1.50
2022-11-28T00:42:59.931Z,-1.50
2022-11-28T00:45:29.752Z,-1.50
2022-11-28T00:47:59.625Z,-1.50
2022-11-28T00:50:29.541Z,-1.50
2022-11-28T00:53:02.007Z,-1.60
2022-11-28T00:55:32.015Z,-1.70
2022-11-28T00:58:01.864Z,-1.70
2022-11-28T01:00:32.637Z,-1.80
2022-11-28T01:03:02.616Z,-1.80
2022-11-28T01:05:32.570Z,-1.80
2022-11-28T01:08:04.980Z,-1.80
2022-11-28T01:10:34.959Z,-1.80
2022-11-28T01:13:04.884Z,-2.00
2022-11-28T01:15:34.763Z,-2.10
2022-11-28T01:18:05.347Z,-2.20
2022-11-28T01:20:35.311Z,-2.30
2022-11-28T01:23:07.813Z,-2.30
2022-11-28T01:25:38.028Z,-2.30
2022-11-28T01:28:08.122Z,-2.40
2022-11-28T01:30:37.981Z,-2.30
2022-11-28T01:33:07.843Z,-2.30
2022-11-28T01:35:37.765Z,-2.30
2022-11-28T01:38:10.217Z,-2.30
2022-11-28T01:40:47.708Z,-2.30
2022-11-28T01:43:17.568Z,-2.30
2022-11-28T01:45:47.703Z,-2.30
2022-11-28T01:48:20.185Z,-2.30
2022-11-28T01:50:50.870Z,-2.30
2022-11-28T01:53:23.960Z,-2.40
2022-11-28T01:55:59.126Z,-2.40
2022-11-28T01:58:29.406Z,-2.40
2022-11-28T02:00:59.647Z,-2.30
2022-11-28T02:03:33.559Z,-2.40
2022-11-28T02:06:03.614Z,-2.40
2022-11-28T02:08:39.172Z,-2.40
2022-11-28T02:11:27.575Z,-2.40
2022-11-28T02:14:02.165Z,-2.50
2022-11-28T02:16:43.749Z,-2.50
2022-11-28T02:19:49.435Z,-2.50
2022-11-28T02:22:21.721Z,-2.40
2022-11-28T02:25:20.521Z,-2.50
2022-11-28T02:28:04.058Z,-2.50
2022-11-28T02:30:37.060Z,-2.50
2022-11-28T02:33:20.799Z,-2.50
2022-11-28T02:35:59.133Z,-2.40
2022-11-28T02:38:38.014Z,-2.40
2022-11-28T02:41:12.298Z,-2.40
2022-11-28T02:43:46.875Z,-2.30
2022-11-28T02:46:19.836Z,-2.40
2022-11-28T02:48:56.115Z,-2.40
2022-11-28T02:51:30.464Z,-2.40
2022-11-28T02:54:00.501Z,-2.50
2022-11-28T02:56:30.653Z,-2.60
2022-11-28T02:59:00.550Z,-2.60
2022-11-28T03:01:33.316Z,-2.70
2022-11-28T03:04:15.600Z,-2.60
2022-11-28T03:06:52.221Z,-2.70
2022-11-28T03:09:43.838Z,-2.70
2022-11-28T03:12:24.036Z,-2.70
2022-11-28T03:14:56.119Z,-2.70
2022-11-28T03:17:31.472Z,-2.50
2022-11-28T03:20:14.871Z,-2.30
2022-11-28T03:22:50.061Z,-1.80
2022-11-28T03:25:28.639Z,-1.10
2022-11-28T03:28:03.402Z,-0.70
2022-11-28T03:30:37.629Z,-0.50
2022-11-28T03:33:07.773Z,-0.40
2022-11-28T03:35:42.643Z,-0.20
2022-11-28T03:38:15.722Z,-0.10
2022-11-28T03:40:48.923Z,0.00
2022-11-28T03:43:22.326Z,0.10
2022-11-28T03:45:55.165Z,0.20
2022-11-28T03:48:28.484Z,0.10
2022-11-28T03:51:05.122Z,0.20
2022-11-28T03:53:40.179Z,0.30
2022-11-28T03:56:14.515Z,0.30
2022-11-28T03:58:50.660Z,0.30
2022-11-28T04:01:27.448Z,0.40
2022-11-28T04:04:03.216Z,0.40
2022-11-28T04:06:40.508Z,0.10
2022-11-28T04:09:14.710Z,-0.40
2022-11-28T04:11:48.368Z,-0.80
2022-11-28T04:14:23.558Z,-1.30
2022-11-28T04:16:56.259Z,-1.40
2022-11-28T04:19:30.587Z,-1.70
2022-11-28T04:22:06.351Z,-1.70
2022-11-28T04:24:39.673Z,-1.70
2022-11-28T04:27:11.684Z,-1.80
2022-11-28T04:29:45.371Z,-1.90
2022-11-28T04:32:19.238Z,-1.90
2022-11-28T04:34:53.898Z,-1.90
2022-11-28T04:37:28.580Z,-2.00
2022-11-28T04:39:59.565Z,-2.00
2022-11-28T04:42:34.231Z,-1.70
2022-11-28T04:45:06.406Z,-1.90
2022-11-28T04:47:36.387Z,-1.90
2022-11-28T04:50:06.943Z,-2.00
2022-11-28T04:52:43.168Z,-2.10
2022-11-28T04:55:17.685Z,-2.10
2022-11-28T04:57:54.200Z,-2.10
2022-11-28T05:00:26.650Z,-2.20
2022-11-28T05:02:57.829Z,-2.30
2022-11-28T05:05:31.579Z,-2.30
2022-11-28T05:08:04.201Z,-2.30
2022-11-28T05:10:35.011Z,-2.40
2022-11-28T05:13:04.979Z,-2.50
2022-11-28T05:15:34.882Z,-2.50
2022-11-28T05:18:05.070Z,-2.50
2022-11-28T05:20:35.078Z,-2.60
2022-11-28T05:23:07.965Z,-2.70
2022-11-28T05:25:38.012Z,-2.70
2022-11-28T05:28:08.021Z,-2.70
2022-11-28T05:30:37.855Z,-2.70
2022-11-28T05:33:07.710Z,-2.70
2022-11-28T05:35:37.606Z,-2.70
2022-11-28T05:38:13.506Z,-2.70
2022-11-28T05:40:44.657Z,-2.70
2022-11-28T05:43:14.592Z,-2.70
2022-11-28T05:45:45.185Z,-2.70
2022-11-28T05:48:15.524Z,-2.70
2022-11-28T05:50:45.523Z,-2.70
2022-11-28T05:53:17.968Z,-2.70
2022-11-28T05:55:48.420Z,-2.90
2022-11-28T05:58:18.760Z,-2.80
2022-11-28T06:00:48.600Z,-2.70
2022-11-28T06:03:18.540Z,-2.80
2022-11-28T06:05:48.550Z,-2.90
2022-11-28T06:08:21.100Z,-2.90
2022-11-28T06:10:59.900Z,-3.00
2022-11-28T06:13:29.764Z,-3.00
2022-11-28T06:15:59.546Z,-3.00
2022-11-28T06:18:29.685Z,-3.10
2022-11-28T06:20:59.524Z,-3.10
2022-11-28T06:23:32.218Z,-3.10
2022-11-28T06:26:07.720Z,-3.10
2022-11-28T06:28:38.337Z,-3.10
2022-11-28T06:31:30.336Z,-3.20
2022-11-28T06:34:00.967Z,-3.20
2022-11-28T06:36:31.899Z,-3.20
2022-11-28T06:39:04.498Z,-3.20
2022-11-28T06:41:34.442Z,-3.20
2022-11-28T06:44:04.360Z,-3.30
2022-11-28T06:46:34.270Z,-3.40
2022-11-28T06:49:04.340Z,-3.30
2022-11-28T06:51:34.219Z,-3.40
2022-11-28T06:54:06.885Z,-3.30
2022-11-28T06:56:36.832Z,-3.20
2022-11-28T06:59:06.771Z,-3.20
2022-11-28T07:01:36.929Z,-3.20
2022-11-28T07:04:07.130Z,-3.20
2022-11-28T07:06:37.236Z,-3.10
2022-11-28T07:09:09.814Z,-3.10
2022-11-28T07:11:39.760Z,-3.00
2022-11-28T07:14:10.624Z,-3.00
2022-11-28T07:16:40.890Z,-2.90
2022-11-28T07:19:10.886Z,-2.90
2022-11-28T07:21:41.341Z,-2.80
2022-11-28T07:24:13.930Z,-2.90
2022-11-28T07:26:43.823Z,-2.80
2022-11-28T07:29:17.498Z,-2.70
2022-11-28T07:31:48.083Z,-2.70
2022-11-28T07:34:18.115Z,-2.60
2022-11-28T07:36:47.985Z,-2.50
2022-11-28T07:39:20.561Z,-2.40
2022-11-28T07:41:50.467Z,-2.30
2022-11-28T07:44:20.718Z,-2.30
2022-11-28T07:46:50.628Z,-2.20
2022-11-28T07:49:20.512Z,-2.10
2022-11-28T07:51:50.521Z,-2.20
2022-11-28T07:54:23.113Z,-2.10
2022-11-28T07:59:43.950Z,-2.00
2022-11-28T08:02:14.956Z,-2.00
2022-11-28T08:04:50.430Z,-1.90
2022-11-28T08:07:22.078Z,-1.90
2022-11-28T08:09:54.624Z,-1.80
2022-11-28T08:12:24.527Z,-1.80
2022-11-28T08:14:54.396Z,-1.80
2022-11-28T08:17:24.360Z,-1.70
2022-11-28T08:19:54.209Z,-1.70
2022-11-28T08:22:24.160Z,-1.70
2022-11-28T08:24:56.680Z,-1.60
2022-11-28T08:27:26.523Z,-1.60
2022-11-28T08:29:56.363Z,-1.70
2022-11-28T08:32:26.257Z,-1.70
2022-11-28T08:34:56.077Z,-1.60
2022-11-28T08:37:26.655Z,-1.50
2022-11-28T08:39:59.168Z,-1.50
2022-11-28T08:42:29.127Z,-1.40
2022-11-28T08:44:59.115Z,-1.40
2022-11-28T08:47:29.040Z,-1.40
2022-11-28T08:49:59.008Z,-1.50
2022-11-28T08:52:29.235Z,-1.50
2022-11-28T08:55:01.780Z,-1.40
2022-11-28T08:57:31.696Z,-1.30
2022-11-28T09:00:01.584Z,-1.30
2022-11-28T09:02:31.497Z,-1.20
2022-11-28T09:05:01.544Z,-1.20
2022-11-28T09:07:31.512Z,-1.00
2022-11-28T09:10:04.075Z,-0.90
2022-11-28T09:12:34.471Z,-0.80
2022-11-28T09:15:04.347Z,-0.70
2022-11-28T09:17:34.255Z,-0.70
2022-11-28T09:20:04.433Z,-0.70
2022-11-28T09:22:34.275Z,-0.60
2022-11-28T09:25:07.269Z,-0.60
2022-11-28T09:27:37.123Z,-0.60
2022-11-28T09:30:08.127Z,-0.50
2022-11-28T09:32:38.491Z,-0.50
2022-11-28T09:35:09.587Z,-0.40
2022-11-28T09:37:39.457Z,-0.50
2022-11-28T09:40:19.051Z,-0.50
2022-11-28T09:42:49.704Z,-0.40
2022-11-28T09:45:21.650Z,-0.30
2022-11-28T09:47:54.440Z,-0.20
2022-11-28T09:50:26.804Z,-0.10
2022-11-28T09:53:01.041Z,0.00
2022-11-28T09:55:38.556Z,0.00
2022-11-28T09:58:14.622Z,0.10
2022-11-28T10:00:54.185Z,0.10
2022-11-28T10:03:38.433Z,0.20
2022-11-28T10:06:16.125Z,0.30
2022-11-28T10:08:54.805Z,0.50
2022-11-28T10:11:37.036Z,0.50
2022-11-28T10:14:18.531Z,0.70
2022-11-28T10:16:53.382Z,0.70
2022-11-28T10:19:53.331Z,0.90
2022-11-28T10:22:23.220Z,0.90
2022-11-28T10:24:56.549Z,0.90
2022-11-28T10:27:37.179Z,0.90
2022-11-28T10:30:12.271Z,1.00
2022-11-28T10:32:45.210Z,1.00
2022-11-28T10:35:28.090Z,0.90
2022-11-28T10:37:58.984Z,1.00
2022-11-28T10:40:34.823Z,1.20
2022-11-28T10:43:09.948Z,1.30
2022-11-28T10:45:48.967Z,1.20
2022-11-28T10:48:39.550Z,1.30
2022-11-28T10:51:18.842Z,1.30
2022-11-28T10:53:53.391Z,1.50
2022-11-28T10:56:35.315Z,1.60
2022-11-28T10:59:13.892Z,1.60
2022-11-28T11:01:48.814Z,1.70
2022-11-28T11:04:22.266Z,1.70
2022-11-28T11:07:12.768Z,1.80
2022-11-28T11:09:46.560Z,1.70
2022-11-28T11:12:22.158Z,1.60
2022-11-28T11:14:54.727Z,1.70
2022-11-28T11:17:35.469Z,1.80
2022-11-28T11:20:17.722Z,1.90
2022-11-28T11:22:57.440Z,2.00
2022-11-28T11:25:27.889Z,2.00
2022-11-28T11:28:01.068Z,1.90
2022-11-28T11:30:35.148Z,2.10
2022-11-28T11:33:07.724Z,2.20
2022-11-28T11:35:39.268Z,2.20
2022-11-28T11:38:34.766Z,2.20
2022-11-28T11:41:23.797Z,2.40
2022-11-28T11:43:53.713Z,2.30
2022-11-28T11:46:26.764Z,2.30
2022-11-28T11:48:56.745Z,2.40
2022-11-28T11:51:28.823Z,2.40
2022-11-28T11:54:06.840Z,2.50
2022-11-28T11:56:40.129Z,2.50
2022-11-28T11:59:15.126Z,2.60
2022-11-28T12:01:49.174Z,2.80
2022-11-28T12:04:44.674Z,2.90
2022-11-28T12:07:21.398Z,3.00
2022-11-28T12:09:54.510Z,3.00
2022-11-28T12:12:26.428Z,3.00
2022-11-28T12:14:56.358Z,3.00
2022-11-28T12:17:58.812Z,2.90
2022-11-28T12:20:37.052Z,3.10
2022-11-28T12:23:18.240Z,3.50
2022-11-28T12:25:51.843Z,3.70
2022-11-28T12:28:31.824Z,3.60
2022-11-28T12:31:26.501Z,3.60
2022-11-28T12:34:09.968Z,3.70
2022-11-28T12:36:43.872Z,3.80
2022-11-28T12:39:20.585Z,3.80
2022-11-28T12:42:11.932Z,3.90
2022-11-28T12:45:06.246Z,3.80
2022-11-28T12:47:43.485Z,3.80
2022-11-28T12:50:26.280Z,3.80
2022-11-28T12:53:12.852Z,3.80
2022-11-28T12:55:49.206Z,3.80
2022-11-28T12:58:25.431Z,3.70
2022-11-28T13:01:00.534Z,3.60
2022-11-28T13:03:43.228Z,3.60
2022-11-28T13:06:25.340Z,3.60
2022-11-28T13:09:10.211Z,3.50
2022-11-28T13:11:52.556Z,3.30
2022-11-28T13:14:29.873Z,3.30
2022-11-28T13:17:19.372Z,3.20
2022-11-28T13:19:54.128Z,3.10
2022-11-28T13:22:27.887Z,3.20
2022-11-28T13:25:03.689Z,3.20
2022-11-28T13:27:40.698Z,3.10
2022-11-28T13:30:20.344Z,3.10
2022-11-28T13:32:53.653Z,3.00
2022-11-28T13:35:24.185Z,2.90
2022-11-28T13:40:54.548Z,2.90
2022-11-28T13:43:33.094Z,3.00
2022-11-28T13:46:03.222Z,2.90
2022-11-28T13:49:13.751Z,3.00
2022-11-28T13:51:44.068Z,2.90
2022-11-28T13:54:49.966Z,2.90
2022-11-28T13:57:30.014Z,2.90
2022-11-28T14:00:05.303Z,2.90
2022-11-28T14:02:47.224Z,2.90
2022-11-28T14:05:35.876Z,2.90
2022-11-28T14:08:07.212Z,2.90
2022-11-28T14:10:56.578Z,3.00
2022-11-28T14:13:48.407Z,3.10
2022-11-28T14:16:29.702Z,3.20
2022-11-28T14:19:07.776Z,3.40
2022-11-28T14:21:48.103Z,3.60
2022-11-28T14:24:23.199Z,3.60
2022-11-28T14:27:00.531Z,3.70
2022-11-28T14:29:38.775Z,3.80
2022-11-28T14:32:29.695Z,3.70
2022-11-28T14:34:59.170Z,3.80
2022-11-28T14:37:55.667Z,3.80
2022-11-28T14:41:11.783Z,3.90
2022-11-28T14:43:44.804Z,3.90
2022-11-28T14:46:36.163Z,3.90
2022-11-28T14:49:22.569Z,3.90
2022-11-28T14:52:38.916Z,3.80
2022-11-28T14:55:20.747Z,3.80
2022-11-28T14:58:02.158Z,3.80
2022-11-28T15:00:35.840Z,3.80
2022-11-28T15:03:17.660Z,3.80
2022-11-28T15:05:48.624Z,3.90
2022-11-28T15:08:48.180Z,3.80
2022-11-28T15:11:25.645Z,3.70
2022-11-28T15:14:10.927Z,3.70
2022-11-28T15:16:50.273Z,3.60
2022-11-28T15:19:28.853Z,3.60
2022-11-28T15:21:59.166Z,3.70
2022-11-28T15:24:32.616Z,3.50
2022-11-28T15:27:21.490Z,3.60
2022-11-28T15:29:56.810Z,3.60
2022-11-28T15:32:27.840Z,3.50
2022-11-28T15:35:05.430Z,3.60
2022-11-28T15:37:39.417Z,3.40
2022-11-28T15:40:10.867Z,3.50
2022-11-28T15:42:40.886Z,3.50
2022-11-28T15:45:17.035Z,3.60
2022-11-28T15:47:49.722Z,3.50
2022-11-28T15:50:25.263Z,3.60
2022-11-28T15:52:59.533Z,3.30
2022-11-28T15:55:31.693Z,3.30
2022-11-28T15:58:15.712Z,3.30
2022-11-28T16:00:47.082Z,3.20
2022-11-28T16:03:19.016Z,3.20
2022-11-28T16:05:52.071Z,3.20
2022-11-28T16:08:27.358Z,3.10
2022-11-28T16:10:58.731Z,3.10
2022-11-28T16:13:28.738Z,3.10
2022-11-28T16:16:01.438Z,3.00
2022-11-28T16:18:32.305Z,3.00
2022-11-28T16:21:04.939Z,2.90
2022-11-28T16:23:38.046Z,3.00
2022-11-28T16:26:09.616Z,3.00
2022-11-28T16:28:40.912Z,2.90
2022-11-28T16:31:14.878Z,2.90
2022-11-28T16:33:46.402Z,2.90
2022-11-28T16:36:25.105Z,3.00
2022-11-28T16:38:56.595Z,3.20
2022-11-28T16:41:30.661Z,3.20
2022-11-28T16:44:05.152Z,3.30
2022-11-28T16:46:37.974Z,3.30
2022-11-28T16:49:09.402Z,3.30
2022-11-28T16:51:43.540Z,3.30
2022-11-28T16:54:32.162Z,3.30
2022-11-28T16:57:14.790Z,3.20
2022-11-28T16:59:45.905Z,3.20
2022-11-28T17:02:19.037Z,3.10
2022-11-28T17:04:50.091Z,3.10
2022-11-28T17:07:23.969Z,3.20
2022-11-28T17:09:54.004Z,3.20
2022-11-28T17:12:27.753Z,3.10
2022-11-28T17:14:58.829Z,3.10
2022-11-28T17:17:28.901Z,3.00
2022-11-28T17:19:58.841Z,3.00
2022-11-28T17:22:41.068Z,3.10
2022-11-28T17:25:17.242Z,3.00
2022-11-28T17:27:48.263Z,2.90
2022-11-28T17:30:19.724Z,2.90
2022-11-28T17:32:52.100Z,2.90
2022-11-28T17:35:24.934Z,2.80
2022-11-28T17:37:57.464Z,2.90
2022-11-28T17:40:36.911Z,3.00
2022-11-28T17:43:07.659Z,3.20
2022-11-28T17:45:38.658Z,3.20
2022-11-28T17:48:09.489Z,3.20
2022-11-28T17:50:39.659Z,3.20
2022-11-28T17:53:15.468Z,3.30
2022-11-28T17:55:47.146Z,3.30
2022-11-28T17:58:19.168Z,3.40
2022-11-28T18:00:50.280Z,3.40
2022-11-28T18:03:20.566Z,3.50
2022-11-28T18:05:52.931Z,3.50
2022-11-28T18:08:26.003Z,3.40
2022-11-28T18:11:05.937Z,3.40
2022-11-28T18:13:36.074Z,3.40
2022-11-28T18:16:06.063Z,3.50
2022-11-28T18:18:36.017Z,3.40
2022-11-28T18:21:07.172Z,3.40
2022-11-28T18:23:40.200Z,3.40
2022-11-28T18:26:11.802Z,3.40
2022-11-28T18:28:42.576Z,3.40
2022-11-28T18:31:13.595Z,3.50
2022-11-28T18:33:43.628Z,3.40
2022-11-28T18:36:16.147Z,3.30
2022-11-28T18:38:48.941Z,3.40
2022-11-28T18:41:20.294Z,3.40
2022-11-28T18:43:50.047Z,3.30
2022-11-28T18:46:21.671Z,3.30
2022-11-28T18:48:51.899Z,3.30
2022-11-28T18:51:23.781Z,3.40
2022-11-28T18:53:56.867Z,3.60
2022-11-28T18:56:29.399Z,3.50
2022-11-28T18:58:59.918Z,3.50
2022-11-28T19:01:32.647Z,3.50
2022-11-28T19:04:04.314Z,3.50
2022-11-28T19:06:34.686Z,3.50
2022-11-28T19:09:09.473Z,3.50
2022-11-28T19:11:39.859Z,3.50
2022-11-28T19:14:11.422Z,3.40
2022-11-28T19:16:43.260Z,3.40
2022-11-28T19:19:17.271Z,3.40
2022-11-28T19:21:47.359Z,3.50
2022-11-28T19:24:19.860Z,3.40
2022-11-28T19:26:49.875Z,3.30
2022-11-28T19:29:20.722Z,3.30
2022-11-28T19:31:51.277Z,3.40
2022-11-28T19:34:22.027Z,3.40
2022-11-28T19:36:54.353Z,3.40
2022-11-28T19:39:28.263Z,3.40
2022-11-28T19:41:58.723Z,3.40
2022-11-28T19:44:29.486Z,3.40
2022-11-28T19:46:59.465Z,3.40
2022-11-28T19:49:31.057Z,3.30
2022-11-28T19:52:01.027Z,3.30
2022-11-28T19:54:33.623Z,3.30
2022-11-28T19:57:07.858Z,3.30
2022-11-28T19:59:37.749Z,3.30
2022-11-28T20:02:08.417Z,3.30
2022-11-28T20:04:38.427Z,3.30
2022-11-28T20:07:08.327Z,3.30
2022-11-28T20:09:41.696Z,3.30
2022-11-28T20:12:11.836Z,3.30
2022-11-28T20:14:41.711Z,3.30
2022-11-28T20:17:11.670Z,3.30
2022-11-28T20:19:42.080Z,3.30
2022-11-28T20:22:12.448Z,3.20
2022-11-28T20:24:44.920Z,3.30
2022-11-28T20:27:14.907Z,3.30
2022-11-28T20:29:45.258Z,3.30
2022-11-28T20:32:15.409Z,3.20
2022-11-28T20:34:45.418Z,3.20
2022-11-28T20:37:15.279Z,3.20
2022-11-28T20:39:47.738Z,3.30
2022-11-28T20:42:17.922Z,3.30
2022-11-28T20:44:47.819Z,3.20
2022-11-28T20:47:18.072Z,3.30
2022-11-28T20:49:47.988Z,3.30
2022-11-28T20:52:18.356Z,3.20
2022-11-28T20:54:50.808Z,3.30
2022-11-28T20:57:22.270Z,3.20
2022-11-28T20:59:52.642Z,3.30
2022-11-28T21:02:22.611Z,3.20
2022-11-28T21:04:52.449Z,3.20
2022-11-28T21:07:23.240Z,3.20
2022-11-28T21:09:59.932Z,3.20
2022-11-28T21:12:29.875Z,3.10
2022-11-28T21:14:59.694Z,3.10
2022-11-28T21:17:29.621Z,3.10
2022-11-28T21:19:59.478Z,3.10
2022-11-28T21:22:29.504Z,3.10
2022-11-28T21:25:02.484Z,3.00
2022-11-28T21:27:32.536Z,3.10
2022-11-28T21:30:02.465Z,3.10
2022-11-28T21:32:32.393Z,3.10
2022-11-28T21:35:04.575Z,3.10
2022-11-28T21:37:34.676Z,3.10
2022-11-28T21:40:08.427Z,3.10
2022-11-28T21:42:38.427Z,3.10
2022-11-28T21:45:09.621Z,3.10
2022-11-28T21:47:39.558Z,3.00
2022-11-28T21:50:10.866Z,3.00
2022-11-28T21:52:40.799Z,3.00
2022-11-28T21:55:13.555Z,3.00
2022-11-28T21:57:44.943Z,3.00
2022-11-28T22:00:31.613Z,3.10
2022-11-28T22:03:12.460Z,3.10
2022-11-28T22:05:44.514Z,3.10
2022-11-28T22:08:14.331Z,3.10
2022-11-28T22:10:46.862Z,3.20
2022-11-28T22:13:16.733Z,3.10
2022-11-28T22:15:46.895Z,3.00
2022-11-28T22:18:16.856Z,3.00
2022-11-28T22:20:51.654Z,3.10
2022-11-28T22:23:22.941Z,3.00
2022-11-28T22:25:56.014Z,3.10
2022-11-28T22:28:25.847Z,3.20
2022-11-28T22:30:55.717Z,3.10
2022-11-28T22:33:25.684Z,3.10
2022-11-28T22:35:56.081Z,3.00
2022-11-28T22:38:26.228Z,3.00
2022-11-28T22:40:58.822Z,2.90
2022-11-28T22:43:28.933Z,3.00
2022-11-28T22:45:59.656Z,2.80
2022-11-28T22:48:31.577Z,2.70
2022-11-28T22:51:01.640Z,2.70
2022-11-28T22:53:31.651Z,2.60
2022-11-28T22:56:08.146Z,2.60
2022-11-28T22:58:42.507Z,2.50
2022-11-28T23:01:14.670Z,2.60
2022-11-28T23:03:45.832Z,2.30
2022-11-28T23:06:18.321Z,2.20
2022-11-28T23:08:49.141Z,2.20
2022-11-28T23:11:25.466Z,2.40
2022-11-28T23:13:55.826Z,2.50
2022-11-28T23:16:27.987Z,2.70
2022-11-28T23:19:00.020Z,2.70
2022-11-28T23:21:33.232Z,2.80
2022-11-28T23:24:03.731Z,3.00
2022-11-28T23:26:37.199Z,2.90
2022-11-28T23:29:08.097Z,2.90
2022-11-28T23:31:41.870Z,3.00
2022-11-28T23:34:14.335Z,3.00
2022-11-28T23:36:46.363Z,3.00
2022-11-28T23:39:18.411Z,3.00
2022-11-28T23:41:51.533Z,3.00
2022-11-28T23:44:22.335Z,3.00
2022-11-28T23:46:52.304Z,3.00
2022-11-28T23:49:22.437Z,3.10
2022-11-28T23:51:52.331Z,3.10
2022-11-28T23:54:22.288Z,3.10
2022-11-28T23:56:54.866Z,3.10
2022-11-28T23:59:25.134Z,3.10
